Time;durP1;ratioP1;P1;durP2;ratioP2;P2;SDS_P1;SDS_P2;PMS_P1;PMS_P2;Temp;Humidity;BMP_temperature;BMP_pressure;BME280_temperature;BME280_humidity;BME280_pressure;Samples;Min_cycle;Max_cycle;Signal;HPM_P1;HPM_P2
2022/01/13 00:01:15;;;;;;;;;;;1.10;99.90;;;0.21;100.00;102978.03;4916201;29;19931;-78
2022/01/13 00:03:42;;;;;;;;;;;1.30;99.90;;;0.20;100.00;102983.16;4947101;29;19970;-78
2022/01/13 00:06:09;;;;;;;;;;;0.90;99.90;;;0.06;100.00;102979.69;4932029;29;19979;-79
2022/01/13 00:08:36;;;;;;;;;;;1.10;99.90;;;-0.02;100.00;102971.47;4915514;29;19927;-78
2022/01/13 00:11:03;;;;;;;;;;;0.90;99.90;;;-0.01;100.00;102978.44;4945592;29;19930;-78
2022/01/13 00:13:44;;;;;;;;;;;3.70;99.90;;;-0.04;100.00;102986.91;4945240;28;19934;-78
2022/01/13 00:16:37;;;;;;;;;;;0.80;99.90;;;-0.08;100.00;102984.94;4946251;29;19938;-78
2022/01/13 00:19:34;;;;;;;;;;;1.70;99.90;;;-0.15;100.00;102988.84;4935627;29;19930;-78
2022/01/13 00:24:55;;;;;;;;;;;0.80;99.90;;;-0.21;100.00;103000.50;4932314;29;19931;-78
2022/01/13 00:27:24;;;;;;;;;;;2.40;99.90;;;-0.29;100.00;102992.25;4946752;28;19977;-78
2022/01/13 00:29:55;;;;;;;;;;;0.90;99.90;;;-0.35;100.00;102997.03;4930250;29;19931;-78
2022/01/13 00:32:24;;;;;;;;;;;1.30;99.90;;;-0.33;100.00;103004.09;4945730;28;20393;-79
2022/01/13 00:34:54;;;;;;;;;;;0.70;99.90;;;-0.39;100.00;102995.06;4946065;29;19930;-78
2022/01/13 00:37:21;;;;;;;;;;;0.50;99.90;;;-0.35;100.00;103000.53;4945981;28;19930;-78
2022/01/13 00:39:48;;;;;;;;;;;0.50;99.90;;;-0.35;100.00;103013.47;4945471;29;19954;-78
2022/01/13 00:42:15;;;;;;;;;;;0.40;99.90;;;-0.43;100.00;103014.66;4936639;29;19930;-78
2022/01/13 00:44:43;;;;;;;;;;;2.00;99.90;;;-0.51;100.00;103008.97;4945520;29;20451;-78
2022/01/13 00:47:11;;;;;;;;;;;0.70;99.90;;;-0.60;100.00;103006.69;4946313;29;20311;-79
2022/01/13 00:49:38;;;;;;;;;;;0.50;99.90;;;-0.60;100.00;103001.53;4946522;29;19930;-79
2022/01/13 00:52:05;;;;;;;;;;;2.70;99.90;;;-0.58;100.00;103007.69;4930276;28;19930;-79
2022/01/13 00:54:33;;;;;;;;;;;0.30;99.90;;;-0.57;100.00;103003.44;4944474;29;19953;-78
2022/01/13 00:57:00;;;;;;;;;;;0.30;99.90;;;-0.59;100.00;102998.16;4930569;29;19935;-78
2022/01/13 00:59:27;;;;;;;;;;;2.90;99.90;;;-0.69;100.00;103008.72;4930029;29;19930;-78
2022/01/13 01:01:55;;;;;;;;;;;2.20;99.90;;;-0.64;100.00;103006.41;4947548;28;19930;-78
2022/01/13 01:04:24;;;;;;;;;;;0.40;99.90;;;-0.67;100.00;103003.63;4944533;29;19930;-78
2022/01/13 01:06:53;;;;;;;;;;;0.20;99.90;;;-0.72;100.00;103001.63;4946240;29;19949;-79
2022/01/13 01:09:38;;;;;;;;;;;-0.20;99.90;;;-0.74;100.00;103010.09;4961681;28;20821;-77
2022/01/13 01:12:08;;;;;;;;;;;0.30;99.90;;;-0.85;100.00;103014.56;4945520;29;19938;-78
2022/01/13 01:14:39;;;;;;;;;;;0.10;99.90;;;-0.86;100.00;103024.03;4944401;28;19930;-79
2022/01/13 01:17:06;;;;;;;;;;;0.30;99.90;;;-0.85;100.00;103024.91;4945978;29;19931;-79
2022/01/13 01:19:36;;;;;;;;;;;0.20;99.90;;;-0.92;100.00;103018.44;4946721;29;19974;-79
2022/01/13 01:22:19;;;;;;;;;;;1.80;99.90;;;-0.97;100.00;103026.66;4932850;28;19936;-78
2022/01/13 01:27:45;;;;;;;;;;;0.10;99.90;;;-1.01;100.00;103018.72;4949002;28;19934;-78
2022/01/13 01:30:25;;;;;;;;;;;-0.20;99.90;;;-1.13;100.00;103017.00;4933761;29;19933;-79
2022/01/13 01:32:52;;;;;;;;;;;-0.10;99.90;;;-1.12;100.00;103019.69;4949688;29;19936;-79
2022/01/13 01:35:24;;;;;;;;;;;-0.20;99.90;;;-1.08;100.00;103020.78;4933743;29;20415;-78
2022/01/13 01:37:51;;;;;;;;;;;-0.20;99.90;;;-1.12;100.00;103014.50;4948823;28;19941;-78
2022/01/13 01:40:19;;;;;;;;;;;-0.10;99.90;;;-1.08;100.00;103023.38;4949084;28;20402;-76
2022/01/13 01:42:47;;;;;;;;;;;2.60;99.90;;;-1.19;100.00;103017.50;4950568;28;19930;-77
2022/01/13 01:45:15;;;;;;;;;;;-0.10;99.90;;;-1.26;100.00;103016.19;4948706;28;20726;-76
2022/01/13 01:47:44;;;;;;;;;;;2.20;99.90;;;-1.26;100.00;103017.84;4948208;28;19937;-78
2022/01/13 01:50:22;;;;;;;;;;;-0.20;99.90;;;-1.25;100.00;103020.56;4946752;29;20040;-79
2022/01/13 01:52:52;;;;;;;;;;;-0.30;99.90;;;-1.34;100.00;103025.09;4931834;29;19968;-78
2022/01/13 01:55:20;;;;;;;;;;;-0.30;99.90;;;-1.45;100.00;103016.63;4963953;28;19930;-79
2022/01/13 01:57:51;;;;;;;;;;;-0.30;99.90;;;-1.52;100.00;103020.47;4933343;29;20006;-78
2022/01/13 02:00:21;;;;;;;;;;;2.00;99.90;;;-1.53;100.00;103016.09;4929031;29;19982;-78
2022/01/13 02:02:48;;;;;;;;;;;-0.30;99.90;;;-1.77;100.00;103005.88;4928806;29;19938;-79
2022/01/13 02:05:16;;;;;;;;;;;-0.40;99.90;;;-1.82;100.00;103006.34;4929098;29;19938;-79
2022/01/13 02:07:43;;;;;;;;;;;-0.40;99.90;;;-1.81;100.00;103003.84;4928918;29;19962;-78
2022/01/13 02:10:10;;;;;;;;;;;1.40;99.90;;;-1.67;100.00;102996.19;4913722;29;19930;-78
2022/01/13 02:12:44;;;;;;;;;;;-0.70;99.90;;;-1.60;100.00;102990.66;4928422;28;19933;-79
2022/01/13 02:15:30;;;;;;;;;;;-0.60;99.90;;;-1.53;100.00;102994.56;4946264;29;19926;-79
2022/01/13 02:17:58;;;;;;;;;;;1.80;99.90;;;-1.55;100.00;102988.41;4962094;28;19927;-78
2022/01/13 02:20:54;;;;;;;;;;;-0.60;99.90;;;-1.58;100.00;102992.53;4962842;28;19930;-78
2022/01/13 02:23:38;;;;;;;;;;;-0.50;99.90;;;-1.66;100.00;102990.22;4946071;29;20965;-79
2022/01/13 02:26:09;;;;;;;;;;;-0.40;99.90;;;-1.72;100.00;102994.19;4932791;29;19930;-79
2022/01/13 02:28:38;;;;;;;;;;;-1.20;99.90;;;-1.75;100.00;102988.81;4947953;28;19934;-79
2022/01/13 02:31:05;;;;;;;;;;;0.40;99.90;;;-1.78;100.00;102985.13;4932208;29;19931;-78
2022/01/13 02:33:34;;;;;;;;;;;-0.50;99.90;;;-1.82;100.00;102988.28;4947056;28;19927;-78
2022/01/13 02:36:03;;;;;;;;;;;-0.70;99.90;;;-1.84;100.00;102987.28;4917839;29;20037;-79
2022/01/13 02:38:30;;;;;;;;;;;-0.60;99.90;;;-1.83;100.00;102979.63;4949455;28;19931;-78
2022/01/13 02:40:59;;;;;;;;;;;-0.90;99.90;;;-1.78;100.00;102987.69;4950583;29;19930;-78
2022/01/13 02:43:29;;;;;;;;;;;-0.80;99.90;;;-1.80;100.00;102979.84;4948492;29;19938;-78
2022/01/13 02:46:18;;;;;;;;;;;-0.80;99.90;;;-1.84;100.00;102982.13;4948854;29;20347;-78
2022/01/13 02:48:46;;;;;;;;;;;-0.50;99.90;;;-1.81;100.00;102974.59;4949019;29;19934;-78
2022/01/13 02:51:13;;;;;;;;;;;-1.00;99.90;;;-1.87;100.00;102975.97;4950131;28;19930;-78
2022/01/13 02:53:39;;;;;;;;;;;-0.80;99.90;;;-1.86;100.00;102972.59;4930709;29;19942;-78
2022/01/13 02:56:06;;;;;;;;;;;-0.90;99.90;;;-1.87;100.00;102964.72;4933323;29;19930;-78
2022/01/13 02:58:34;;;;;;;;;;;-0.60;99.90;;;-1.95;100.00;102963.28;4948729;28;19931;-78
2022/01/13 03:01:03;;;;;;;;;;;-0.90;99.90;;;-2.00;100.00;102958.72;4948711;29;20412;-78
2022/01/13 03:03:32;;;;;;;;;;;0.10;99.90;;;-2.07;100.00;102968.50;4915344;28;19930;-78
2022/01/13 03:06:05;;;;;;;;;;;-0.80;99.90;;;-2.17;100.00;102965.28;4931716;29;19930;-78
2022/01/13 03:08:32;;;;;;;;;;;-0.70;99.90;;;-2.34;100.00;102958.94;4931276;29;19935;-78
2022/01/13 03:10:59;;;;;;;;;;;-1.10;99.90;;;-2.24;100.00;102960.47;4931988;29;19930;-78
2022/01/13 03:13:28;;;;;;;;;;;-0.90;99.90;;;-2.26;100.00;102958.56;4930719;29;19930;-78
2022/01/13 03:15:55;;;;;;;;;;;-1.00;99.90;;;-2.19;100.00;102961.69;4948758;28;19939;-78
2022/01/13 03:18:22;;;;;;;;;;;-1.10;99.90;;;-2.11;100.00;102971.66;4946520;28;19939;-78
2022/01/13 03:20:49;;;;;;;;;;;-1.00;99.90;;;-2.07;100.00;102984.88;4944376;28;19934;-78
2022/01/13 03:23:18;;;;;;;;;;;-1.20;99.90;;;-2.06;100.00;102972.88;4914595;29;20415;-78
2022/01/13 03:25:46;;;;;;;;;;;1.90;99.90;;;-2.07;100.00;102974.56;4931521;29;19930;-78
2022/01/13 03:28:28;;;;;;;;;;;1.30;99.90;;;-2.05;100.00;102973.00;4931668;29;20512;-77
2022/01/13 03:30:55;;;;;;;;;;;-0.90;99.90;;;-2.00;100.00;102968.16;4931332;29;19941;-78
2022/01/13 03:33:22;;;;;;;;;;;-1.00;99.90;;;-2.06;100.00;102958.28;4946004;28;20499;-79
2022/01/13 03:35:49;;;;;;;;;;;-1.10;99.90;;;-1.97;100.00;102972.59;4962992;28;19934;-78
2022/01/13 03:38:16;;;;;;;;;;;1.10;99.90;;;-1.90;100.00;102982.59;4946321;28;20017;-78
2022/01/13 03:40:43;;;;;;;;;;;0.80;99.90;;;-1.97;100.00;102982.94;4946655;29;19931;-78
2022/01/13 03:43:11;;;;;;;;;;;-1.00;99.90;;;-2.06;100.00;102975.44;4946961;28;19930;-79
2022/01/13 03:45:38;;;;;;;;;;;-0.90;99.90;;;-2.16;100.00;102973.91;4945603;28;19938;-79
2022/01/13 03:48:06;;;;;;;;;;;-1.20;99.90;;;-2.17;100.00;102982.44;4946218;28;19931;-79
2022/01/13 03:50:33;;;;;;;;;;;1.50;99.90;;;-2.17;100.00;102983.34;4946105;28;19937;-79
2022/01/13 03:53:03;;;;;;;;;;;-1.20;99.90;;;-2.18;100.00;102976.41;4929953;28;20241;-78
2022/01/13 03:55:36;;;;;;;;;;;-1.10;99.90;;;-2.16;100.00;102973.91;4945756;28;20501;-78
2022/01/13 03:58:40;;;;;;;;;;;-1.30;99.90;;;-2.16;100.00;102969.66;4946456;28;20550;-78
2022/01/13 04:01:49;;;;;;;;;;;-1.10;99.90;;;-2.18;100.00;102971.25;4945971;29;19931;-77
2022/01/13 04:04:17;;;;;;;;;;;0.90;99.90;;;-2.29;100.00;102965.31;4938471;28;20025;-78
2022/01/13 04:06:45;;;;;;;;;;;-1.00;99.90;;;-2.42;100.00;102958.38;4929033;29;20592;-76
2022/01/13 04:09:21;;;;;;;;;;;0.40;99.90;;;-2.44;100.00;102959.97;4930375;29;19930;-77
2022/01/13 04:11:50;;;;;;;;;;;-1.10;99.90;;;-2.39;100.00;102964.53;4930913;29;19930;-76
2022/01/13 04:14:27;;;;;;;;;;;-1.40;99.90;;;-2.37;100.00;102962.97;4946056;29;19933;-77
2022/01/13 04:16:54;;;;;;;;;;;-1.20;99.90;;;-2.34;100.00;102970.91;4931566;29;19937;-78
2022/01/13 04:19:21;;;;;;;;;;;0.70;99.90;;;-2.51;100.00;102964.56;4946903;28;20029;-78
2022/01/13 04:21:48;;;;;;;;;;;-2.60;99.90;;;-2.61;100.00;102963.03;4946801;29;19938;-77
2022/01/13 04:24:15;;;;;;;;;;;-1.40;99.90;;;-2.59;100.00;102974.34;4945201;29;19930;-78
2022/01/13 04:26:43;;;;;;;;;;;1.60;99.90;;;-2.58;100.00;102971.84;4945631;29;19965;-78
2022/01/13 04:31:39;;;;;;;;;;;-1.30;99.90;;;-2.50;100.00;102977.56;4945997;29;19935;-77
2022/01/13 04:34:06;;;;;;;;;;;-1.60;99.90;;;-2.49;100.00;102987.13;4944903;29;19938;-78
2022/01/13 04:36:33;;;;;;;;;;;-1.40;99.90;;;-2.54;100.00;102975.56;4946390;29;19953;-78
2022/01/13 04:39:00;;;;;;;;;;;-1.40;99.90;;;-2.57;100.00;102975.34;4914625;29;20339;-77
2022/01/13 04:41:34;;;;;;;;;;;-1.50;99.90;;;-2.56;100.00;102974.56;4930192;29;19935;-77
2022/01/13 04:44:05;;;;;;;;;;;-1.40;99.90;;;-2.56;100.00;102984.88;4929422;29;19938;-78
2022/01/13 04:46:32;;;;;;;;;;;-1.60;99.90;;;-2.55;100.00;102972.88;4930316;29;19937;-78
2022/01/13 04:49:00;;;;;;;;;;;-1.40;99.90;;;-2.60;100.00;102985.44;4945528;28;19952;-78
2022/01/13 04:51:27;;;;;;;;;;;-1.50;99.90;;;-2.83;100.00;102984.66;4914082;29;19965;-79
2022/01/13 04:53:54;;;;;;;;;;;-1.20;99.90;;;-2.82;100.00;102980.41;4944832;29;19938;-78
2022/01/13 04:56:38;;;;;;;;;;;-0.80;99.90;;;-2.80;100.00;102979.75;4946474;29;19935;-78
2022/01/13 04:59:07;;;;;;;;;;;-1.70;99.90;;;-2.78;100.00;102992.72;4948591;28;19938;-78
2022/01/13 05:01:35;;;;;;;;;;;-1.50;99.90;;;-2.78;100.00;102985.00;4948774;28;19937;-79
2022/01/13 05:04:02;;;;;;;;;;;-1.60;99.90;;;-2.79;100.00;102981.53;4948250;29;19935;-79
2022/01/13 05:06:29;;;;;;;;;;;-1.60;99.90;;;-2.70;100.00;102989.03;4950799;28;19930;-79
2022/01/13 05:08:56;;;;;;;;;;;-1.60;99.90;;;-2.58;100.00;102979.59;4933970;29;19941;-78
2022/01/13 05:11:23;;;;;;;;;;;-1.50;99.90;;;-2.48;100.00;102982.84;4950371;29;20005;-79
2022/01/13 05:13:50;;;;;;;;;;;-1.60;99.90;;;-2.50;100.00;102977.56;4961385;28;19931;-80
2022/01/13 05:16:25;;;;;;;;;;;-1.40;99.90;;;-2.57;100.00;102972.75;4951966;29;19937;-78
2022/01/13 05:24:10;;;;;;;;;;;-1.60;99.90;;;-2.55;100.00;102972.88;4948894;29;20402;-78
2022/01/13 05:26:37;;;;;;;;;;;-1.50;99.90;;;-2.58;100.00;102979.59;4930957;29;19926;-77
2022/01/13 05:29:04;;;;;;;;;;;-1.60;99.90;;;-2.47;100.00;102972.66;4931843;29;19930;-77
2022/01/13 05:31:31;;;;;;;;;;;-1.40;99.90;;;-2.49;100.00;102979.38;4949063;28;19926;-77
2022/01/13 05:33:58;;;;;;;;;;;-1.20;99.90;;;-2.57;100.00;102973.69;4945509;29;19931;-77
2022/01/13 05:36:25;;;;;;;;;;;-1.50;99.90;;;-2.56;100.00;102974.56;4917349;28;19927;-78
2022/01/13 05:38:52;;;;;;;;;;;-0.30;99.90;;;-2.45;100.00;102972.75;4938722;28;19934;-77
2022/01/13 05:41:19;;;;;;;;;;;-1.50;99.90;;;-2.47;100.00;102982.06;4942813;28;19953;-77
2022/01/13 05:43:46;;;;;;;;;;;-1.50;99.90;;;-2.59;100.00;102982.06;4948983;28;19941;-77
2022/01/13 05:46:13;;;;;;;;;;;-1.30;99.90;;;-2.64;100.00;102983.44;4934195;29;19937;-77
2022/01/13 05:48:40;;;;;;;;;;;-1.50;99.90;;;-2.68;100.00;102987.47;4950553;28;19956;-77
2022/01/13 05:51:07;;;;;;;;;;;-1.30;99.90;;;-2.78;100.00;102992.72;4932223;29;19938;-78
2022/01/13 05:53:34;;;;;;;;;;;-1.50;99.90;;;-2.85;100.00;103000.00;4953465;28;19965;-77
2022/01/13 05:56:01;;;;;;;;;;;-1.40;99.90;;;-2.71;100.00;102989.81;4969318;28;19941;-77
2022/01/13 05:58:32;;;;;;;;;;;1.10;99.90;;;-2.54;100.00;102991.03;4968858;28;19984;-78
2022/01/13 06:00:59;;;;;;;;;;;-1.00;99.90;;;-2.51;100.00;102991.25;4952448;28;19937;-77
2022/01/13 06:03:26;;;;;;;;;;;-1.40;99.90;;;-2.46;100.00;102999.31;4966960;28;19942;-79
2022/01/13 06:05:53;;;;;;;;;;;-1.60;99.90;;;-2.37;100.00;102997.41;4951973;28;19938;-77
2022/01/13 06:08:20;;;;;;;;;;;-0.30;99.90;;;-2.28;100.00;102999.75;4983258;28;19934;-77
2022/01/13 06:10:47;;;;;;;;;;;-1.50;99.90;;;-2.26;100.00;102997.25;4949658;29;19937;-77
2022/01/13 06:13:14;;;;;;;;;;;0.40;99.90;;;-2.21;100.00;103001.06;4950618;28;19950;-78
2022/01/13 06:15:41;;;;;;;;;;;-1.30;99.90;;;-2.16;100.00;102997.13;4962811;28;20038;-78
2022/01/13 06:18:13;;;;;;;;;;;-1.40;99.90;;;-2.08;100.00;103001.16;4967113;28;19931;-78
2022/01/13 06:20:41;;;;;;;;;;;0.00;99.90;;;-1.98;100.00;103002.69;4927577;29;19931;-78
2022/01/13 06:23:08;;;;;;;;;;;-1.10;99.90;;;-1.98;100.00;102992.38;4935795;29;19942;-77
2022/01/13 06:25:35;;;;;;;;;;;0.20;99.90;;;-1.91;100.00;102997.16;4940779;29;19930;-77
2022/01/13 06:28:03;;;;;;;;;;;-1.10;99.90;;;-1.95;100.00;102999.41;4955594;28;19977;-77
2022/01/13 06:30:40;;;;;;;;;;;-1.00;99.90;;;-1.98;100.00;103004.38;4940560;29;19934;-77
2022/01/13 06:33:07;;;;;;;;;;;-1.00;99.90;;;-1.95;100.00;102999.41;4939023;28;19930;-76
2022/01/13 06:35:36;;;;;;;;;;;-1.10;99.90;;;-2.02;100.00;103004.16;4922581;29;19937;-77
2022/01/13 06:38:03;;;;;;;;;;;-0.80;99.90;;;-1.90;100.00;103013.56;4936710;29;19935;-76
2022/01/13 06:40:31;;;;;;;;;;;-1.00;99.90;;;-1.88;100.00;103014.56;4954636;29;20029;-77
2022/01/13 06:42:58;;;;;;;;;;;-0.90;99.90;;;-1.86;100.00;103020.72;4953463;29;19926;-77
2022/01/13 06:45:25;;;;;;;;;;;-1.10;99.90;;;-1.94;100.00;103021.88;4955040;29;19930;-77
2022/01/13 06:47:51;;;;;;;;;;;1.40;99.90;;;-1.97;100.00;103024.22;4934226;29;20354;-77
2022/01/13 06:50:18;;;;;;;;;;;-0.90;99.90;;;-2.16;100.00;103030.66;4933897;29;19931;-77
2022/01/13 06:52:47;;;;;;;;;;;-0.90;99.90;;;-2.19;100.00;103026.16;4933796;29;19937;-80
2022/01/13 06:55:14;;;;;;;;;;;-1.10;99.90;;;-2.16;100.00;103031.56;4934280;29;19930;-81
2022/01/13 06:57:41;;;;;;;;;;;2.00;99.90;;;-2.18;100.00;103037.41;4932566;28;19937;-78
2022/01/13 07:00:09;;;;;;;;;;;-1.20;99.90;;;-2.26;100.00;103034.28;4939587;29;19938;-80
2022/01/13 07:02:36;;;;;;;;;;;-1.20;99.90;;;-2.26;100.00;103028.19;4951600;29;19931;-78
2022/01/13 07:05:04;;;;;;;;;;;-1.30;99.90;;;-2.33;100.00;103022.63;4948293;29;20383;-78
2022/01/13 07:07:34;;;;;;;;;;;-1.20;99.90;;;-2.31;100.00;103026.19;4945720;29;19953;-78
2022/01/13 07:10:06;;;;;;;;;;;0.50;99.90;;;-2.24;100.00;103036.97;4966447;28;19937;-77
2022/01/13 07:12:33;;;;;;;;;;;-1.30;99.90;;;-2.26;100.00;103033.38;4951712;28;19990;-78
2022/01/13 07:15:00;;;;;;;;;;;-1.30;99.90;;;-2.25;100.00;103033.47;4948738;28;20049;-79
2022/01/13 07:17:27;;;;;;;;;;;-0.70;99.90;;;-2.23;100.00;103041.34;4945894;28;19931;-79
2022/01/13 07:19:54;;;;;;;;;;;-1.20;99.90;;;-2.29;100.00;103041.81;4950751;28;19930;-78
2022/01/13 07:22:21;;;;;;;;;;;-1.40;99.90;;;-2.40;100.00;103038.44;4948843;29;19930;-79
2022/01/13 07:24:48;;;;;;;;;;;1.70;99.90;;;-2.32;100.00;103042.47;4948317;29;20292;-80
2022/01/13 07:27:15;;;;;;;;;;;-1.90;99.90;;;-2.40;100.00;103037.53;4935971;29;20715;-81
2022/01/13 07:29:43;;;;;;;;;;;-0.70;99.90;;;-2.35;100.00;103041.34;4952963;29;20029;-80
2022/01/13 07:32:12;;;;;;;;;;;1.10;99.90;;;-2.39;100.00;103034.19;4936487;29;19938;-81
2022/01/13 07:34:39;;;;;;;;;;;-1.70;99.90;;;-2.41;100.00;103044.41;4966866;28;20018;-80
2022/01/13 07:37:06;;;;;;;;;;;1.10;99.90;;;-2.34;100.00;103048.28;4953014;29;19930;-83
2022/01/13 07:39:35;;;;;;;;;;;0.10;99.90;;;-2.32;100.00;103047.63;4953279;28;19932;-82
2022/01/13 07:42:03;;;;;;;;;;;-0.40;99.90;;;-2.23;100.00;103051.66;4937312;29;19931;-82
2022/01/13 07:44:31;;;;;;;;;;;-1.40;99.90;;;-2.22;100.00;103053.47;4968776;28;19930;-83
2022/01/13 07:46:59;;;;;;;;;;;-0.70;99.90;;;-2.19;100.00;103057.13;4952400;29;19934;-84
2022/01/13 07:49:26;;;;;;;;;;;0.00;99.90;;;-2.19;100.00;103045.94;4951454;28;19937;-83
2022/01/13 07:51:53;;;;;;;;;;;-1.50;99.90;;;-2.15;100.00;103058.25;4932469;28;20670;-82
2022/01/13 07:54:21;;;;;;;;;;;1.90;99.90;;;-2.08;100.00;103057.91;4921101;29;19988;-82
2022/01/13 07:56:54;;;;;;;;;;;1.90;99.90;;;-2.13;100.00;103046.34;4942741;28;19960;-81
2022/01/13 07:59:21;;;;;;;;;;;0.60;99.90;;;-2.07;100.00;103057.13;4955106;28;19930;-81
2022/01/13 08:01:48;;;;;;;;;;;1.70;99.90;;;-2.12;100.00;103053.31;4946943;29;19927;-83
2022/01/13 08:04:17;;;;;;;;;;;-0.20;99.90;;;-2.17;100.00;103045.25;4929173;28;19930;-81
2022/01/13 08:06:44;;;;;;;;;;;-1.50;99.90;;;-2.16;100.00;103053.88;4939052;28;19993;-81
2022/01/13 08:09:11;;;;;;;;;;;1.40;99.90;;;-2.15;100.00;103051.44;4953473;28;19927;-83
2022/01/13 08:11:38;;;;;;;;;;;0.80;99.90;;;-2.20;100.00;103045.03;4935431;29;19992;-82
2022/01/13 08:14:05;;;;;;;;;;;1.20;99.90;;;-2.18;100.00;103045.16;4935291;29;19932;-83
2022/01/13 08:16:35;;;;;;;;;;;-3.60;99.90;;;-2.21;100.00;103042.34;4935082;29;19926;-80
2022/01/13 08:21:48;;;;;;;;;;;2.70;99.90;;;-2.13;100.00;103048.94;4948675;29;19976;-79
2022/01/13 08:24:15;;;;;;;;;;;0.20;99.90;;;-2.12;100.00;103055.00;4932432;29;19958;-79
2022/01/13 08:26:42;;;;;;;;;;;1.10;99.90;;;-2.08;100.00;103044.13;4926924;28;19930;-80
2022/01/13 08:29:09;;;;;;;;;;;1.60;99.90;;;-2.08;100.00;103045.03;4932740;29;19930;-81
2022/01/13 08:31:37;;;;;;;;;;;1.50;99.90;;;-1.98;100.00;103051.72;4947202;29;19937;-78
2022/01/13 08:34:04;;;;;;;;;;;1.40;99.90;;;-1.92;100.00;103054.72;4936592;29;19937;-80
2022/01/13 08:36:31;;;;;;;;;;;-1.20;99.90;;;-1.87;100.00;103034.41;4931483;29;19931;-78
2022/01/13 08:38:58;;;;;;;;;;;-3.00;99.90;;;-1.73;100.00;103037.94;4929803;29;19969;-79
2022/01/13 08:41:25;;;;;;;;;;;-1.70;99.90;;;-1.73;100.00;103027.63;4962398;28;19937;-80
2022/01/13 08:43:53;;;;;;;;;;;0.10;99.90;;;-1.66;100.00;103026.38;4945468;28;19930;-80
2022/01/13 08:46:20;;;;;;;;;;;1.90;99.90;;;-1.56;100.00;103039.13;4961561;28;19934;-81
2022/01/13 08:48:54;;;;;;;;;;;0.30;99.90;;;-1.47;100.00;103042.34;4961055;28;19937;-79
2022/01/13 08:51:21;;;;;;;;;;;-0.90;99.90;;;-1.43;100.00;103049.53;4948939;28;19941;-82
2022/01/13 08:53:48;;;;;;;;;;;-0.40;99.90;;;-1.34;100.00;103053.50;4949845;29;19926;-81
2022/01/13 08:56:15;;;;;;;;;;;-0.60;99.90;;;-1.29;100.00;103053.03;4966535;28;19930;-82
2022/01/13 08:58:43;;;;;;;;;;;1.80;99.90;;;-1.23;100.00;103052.56;4962986;28;19938;-81
2022/01/13 09:01:10;;;;;;;;;;;1.20;99.90;;;-1.15;100.00;103045.31;4934282;29;20456;-82
2022/01/13 09:03:37;;;;;;;;;;;-0.40;99.90;;;-1.07;100.00;103048.41;4972334;28;19931;-81
2022/01/13 09:06:04;;;;;;;;;;;-0.40;99.90;;;-1.03;100.00;103050.41;4965077;28;19985;-82
2022/01/13 09:08:34;;;;;;;;;;;1.70;99.90;;;-0.96;100.00;103055.22;4963433;28;20720;-81
2022/01/13 09:11:02;;;;;;;;;;;-0.10;99.90;;;-0.93;100.00;103052.81;4964600;28;19980;-80
2022/01/13 09:13:35;;;;;;;;;;;0.10;99.90;;;-0.81;100.00;103057.03;4964698;28;20025;-80
2022/01/13 09:16:04;;;;;;;;;;;-0.20;99.90;;;-0.75;100.00;103062.59;4948781;28;19927;-80
2022/01/13 09:21:03;;;;;;;;;;;2.30;99.90;;;-0.65;100.00;103052.06;4937603;29;19956;-81
2022/01/13 09:23:35;;;;;;;;;;;1.10;99.90;;;-0.57;100.00;103061.22;4934314;29;20037;-81
2022/01/13 09:26:04;;;;;;;;;;;1.30;99.90;;;-0.53;100.00;103059.72;4934677;29;19934;-83
2022/01/13 09:28:31;;;;;;;;;;;2.20;99.90;;;-0.47;100.00;103057.56;4917741;29;19938;-80
2022/01/13 09:30:58;;;;;;;;;;;3.20;99.90;;;-0.40;100.00;103048.47;4916821;29;19976;-82
2022/01/13 09:33:26;;;;;;;;;;;0.60;99.90;;;-0.32;100.00;103043.78;4933447;29;20315;-80
2022/01/13 09:35:53;;;;;;;;;;;2.00;99.90;;;-0.20;100.00;103048.88;4930771;28;19930;-80
2022/01/13 09:38:20;;;;;;;;;;;1.80;99.90;;;-0.19;100.00;103048.94;4914122;29;20362;-81
2022/01/13 09:40:48;;;;;;;;;;;2.70;99.90;;;-0.11;100.00;103044.25;4914074;29;19960;-80
2022/01/13 09:43:17;;;;;;;;;;;0.60;99.90;;;-0.10;100.00;103046.06;4929298;29;19926;-79
2022/01/13 09:45:44;;;;;;;;;;;3.30;99.90;;;-0.07;100.00;103030.75;4940223;29;19931;-82
2022/01/13 09:48:11;;;;;;;;;;;3.40;99.90;;;-0.05;100.00;103029.13;4938032;29;19945;-81
2022/01/13 09:50:38;;;;;;;;;;;0.70;99.90;;;0.04;100.00;103027.91;4938262;29;19953;-80
2022/01/13 09:53:07;;;;;;;;;;;-1.10;99.90;;;0.09;100.00;103024.81;4938319;29;19983;-84
2022/01/13 09:55:34;;;;;;;;;;;0.80;99.90;;;0.19;100.00;103025.38;4921696;29;19931;-81
2022/01/13 09:58:05;;;;;;;;;;;0.90;99.90;;;0.20;100.00;103028.06;4935814;29;19931;-80
2022/01/13 10:00:32;;;;;;;;;;;3.40;99.90;;;0.28;100.00;103024.25;4937655;29;19927;-80
2022/01/13 10:03:08;;;;;;;;;;;1.90;99.90;;;0.40;100.00;103038.75;4937336;28;19937;-80
2022/01/13 10:05:45;;;;;;;;;;;0.90;99.90;;;0.46;100.00;103041.72;4949983;29;19980;-79
2022/01/13 10:08:12;;;;;;;;;;;0.90;99.90;;;0.54;100.00;103047.38;4959879;28;19915;-79
2022/01/13 10:10:39;;;;;;;;;;;2.00;99.90;;;0.55;100.00;103034.50;4978161;28;20759;-79
2022/01/13 10:13:10;;;;;;;;;;;1.20;99.90;;;0.63;100.00;103034.97;4972230;28;20071;-80
2022/01/13 10:18:43;;;;;;;;;;;1.40;99.90;;;0.82;100.00;103038.66;4954523;28;20025;-81
2022/01/13 10:21:13;;;;;;;;;;;1.40;99.90;;;0.91;100.00;103043.50;4935859;29;19930;-80
2022/01/13 10:24:06;;;;;;;;;;;1.40;99.90;;;0.99;100.00;103040.53;4923647;29;19929;-78
2022/01/13 10:26:36;;;;;;;;;;;1.70;99.90;;;1.06;100.00;103036.59;4935224;29;19965;-78
2022/01/13 10:29:05;;;;;;;;;;;2.20;99.90;;;1.16;100.00;103039.72;4934116;28;19945;-78
2022/01/13 10:31:50;;;;;;;;;;;1.90;99.90;;;1.27;100.00;103034.38;4966448;28;19958;-79
2022/01/13 10:34:17;;;;;;;;;;;1.80;99.90;;;1.36;100.00;103033.09;4982118;28;19953;-79
2022/01/13 10:37:23;;;;;;;;;;;4.40;99.90;;;1.54;100.00;103034.13;4951999;28;20033;-78
2022/01/13 10:40:12;;;;;;;;;;;1.80;99.90;;;1.60;100.00;103033.56;4939408;28;20428;-78
2022/01/13 10:45:43;;;;;;;;;;;2.40;99.90;;;1.82;100.00;103027.00;4941157;29;19976;-79
2022/01/13 10:48:23;;;;;;;;;;;2.40;99.90;;;1.93;100.00;103023.25;4956456;28;19935;-79
2022/01/13 10:50:56;;;;;;;;;;;3.00;99.90;;;2.01;100.00;103025.41;4956449;29;19937;-79
2022/01/13 10:53:27;;;;;;;;;;;2.50;99.90;;;2.15;100.00;103028.72;4922877;29;19931;-81
2022/01/13 10:56:04;;;;;;;;;;;4.30;99.90;;;2.30;100.00;103021.75;4930756;29;19945;-78
2022/01/13 10:58:37;;;;;;;;;;;2.80;99.90;;;2.37;100.00;103021.28;4947294;28;19969;-79
2022/01/13 11:01:05;;;;;;;;;;;2.90;99.90;;;2.43;100.00;103025.00;4946406;29;19934;-78
2022/01/13 11:03:39;;;;;;;;;;;5.50;99.90;;;2.49;100.00;103022.72;4929709;29;19927;-79
2022/01/13 11:06:09;;;;;;;;;;;2.90;99.90;;;2.58;100.00;103025.81;4916588;29;19941;-78
2022/01/13 11:08:45;;;;;;;;;;;1.50;99.90;;;2.62;100.00;103022.53;4954566;28;20625;-79
2022/01/13 11:11:26;;;;;;;;;;;3.10;99.90;;;2.71;100.00;103026.44;4954627;28;19934;-79
2022/01/13 11:13:57;;;;;;;;;;;4.10;99.90;;;2.74;100.00;103024.91;4931666;29;19930;-78
2022/01/13 11:16:24;;;;;;;;;;;4.20;99.90;;;2.81;100.00;103023.47;4930517;29;20469;-80
2022/01/13 11:18:52;;;;;;;;;;;3.60;99.90;;;2.88;100.00;103014.28;4931962;29;19930;-78
2022/01/13 11:21:20;;;;;;;;;;;5.40;99.90;;;2.93;100.00;103012.84;4917163;29;20008;-77
2022/01/13 11:23:50;;;;;;;;;;;4.30;99.90;;;3.09;100.00;103007.56;4948663;29;19936;-78
2022/01/13 11:26:17;;;;;;;;;;;6.40;99.90;;;3.16;100.00;103015.66;4941576;28;19931;-81
2022/01/13 11:28:44;;;;;;;;;;;3.50;99.90;;;3.28;100.00;103018.88;4960190;28;19941;-77
2022/01/13 11:31:12;;;;;;;;;;;3.80;99.90;;;3.34;100.00;103010.47;4954093;29;19926;-77
2022/01/13 11:33:39;;;;;;;;;;;3.90;99.90;;;3.44;100.00;103009.22;4970880;28;19931;-78
2022/01/13 11:36:08;;;;;;;;;;;5.00;99.90;;;3.43;100.00;103015.25;4950037;28;20614;-80
2022/01/13 11:38:35;;;;;;;;;;;4.30;99.90;;;3.58;100.00;102999.44;4934053;29;19939;-79
2022/01/13 11:41:05;;;;;;;;;;;3.70;99.90;;;3.56;100.00;102988.97;4948135;29;19937;-79
2022/01/13 11:43:39;;;;;;;;;;;8.30;99.90;;;3.72;100.00;102997.50;4933460;29;19930;-82